This is the latest recevied weather packets stored in our database for station/object K0BL. If no packets are shown the sender has not sent any weather packets the latest 10 day(s).
| Time | Temp. | Humidity | Pressure | Rain* | Wind** | Luminosity | Snow |
|---|---|---|---|---|---|---|---|
| 1777622550 | 3.33° C | 82% | 1014.7 hPa | 0 mm | - | 0 W/m² | - |
| 1777622251 | 3.33° C | 82% | 1014.8 hPa | 0 mm | - | 0 W/m² | - |
| 1777621651 | 3.89° C | 81% | 1014.7 hPa | 0 mm | - | 0 W/m² | - |
| 1777620748 | 3.89° C | 79% | 1014.9 hPa | 0 mm | - | 0 W/m² | - |
| 1777618644 | 5° C | 76% | 1015.2 hPa | 0 mm | - | 0 W/m² | - |
| 1777615937 | 5.56° C | 69% | 1015.6 hPa | 0 mm | - | 0 W/m² | - |
| 1777615036 | 5.56° C | 73% | 1015.5 hPa | 0 mm | - | 0 W/m² | - |
| 1777611730 | 6.67° C | 67% | 1015.2 hPa | 0 mm | - | 0 W/m² | - |
| 1777611126 | 7.22° C | 65% | 1015.2 hPa | 0 mm | - | 0 W/m² | - |
| 1777605114 | 10° C | 53% | 1015.1 hPa | 0 mm | - | 0 W/m² | - |
| 1777601212 | 11.11° C | 48% | 1014.3 hPa | 0 mm | - | 0 W/m² | - |
| 1777598510 | 11.11° C | 57% | 1013.7 hPa | 0 mm | - | 0 W/m² | - |
| 1777597907 | 11.11° C | 58% | 1013.6 hPa | 0 mm | - | 2 W/m² | - |
| 1777593703 | 12.78° C | 54% | 1013.1 hPa | 0 mm | - | 54 W/m² | - |
| 1777592502 | 12.78° C | 51% | 1013.1 hPa | 0 mm | - | 90 W/m² | - |
| 1777591602 | 13.33° C | 51% | 1013.1 hPa | 0 mm | - | 63 W/m² | - |
| 1777590405 | 13.33° C | 54% | 1013.1 hPa | 0 mm | - | 123 W/m² | - |
| 1777588597 | 13.33° C | 54% | 1012.9 hPa | 0 mm | - | 161 W/m² | - |
| 1777587097 | 13.89° C | 54% | 1012.8 hPa | 0 mm | - | 201 W/m² | - |
| 1777585598 | 13.89° C | 54% | 1012.6 hPa | 0 mm | - | 110 W/m² | - |
| 1777582892 | 14.44° C | 57% | 1012.9 hPa | 0 mm | - | 502 W/m² | - |
| 1777582592 | 14.44° C | 56% | 1012.9 hPa | 0 mm | - | 624 W/m² | - |
| 1777581692 | 14.44° C | 57% | 1012.8 hPa | 0 mm | - | 669 W/m² | - |
| 1777581392 | 14.44° C | 58% | 1012.8 hPa | 0 mm | - | 686 W/m² | - |
| 1777578087 | 15° C | 68% | 1012.9 hPa | 0 mm | - | 186 W/m² | - |
* Rain latest hour (hover to see other rain measurements)
** Current wind speed in m/s (hover to see current wind gust speed)